createdAt,value
2023-05-09T00:02:02.081Z,3.90
2023-05-09T00:04:32.672Z,4.33
2023-05-09T00:07:00.577Z,3.63
2023-05-09T00:09:28.412Z,3.90
2023-05-09T00:11:56.205Z,4.30
2023-05-09T00:14:24.753Z,4.00
2023-05-09T00:16:53.648Z,4.20
2023-05-09T00:19:21.480Z,3.93
2023-05-09T00:21:50.578Z,4.60
2023-05-09T00:24:18.326Z,4.20
2023-05-09T00:26:46.142Z,4.40
2023-05-09T00:29:13.848Z,4.57
2023-05-09T00:31:41.574Z,4.80
2023-05-09T00:34:09.287Z,3.90
2023-05-09T00:36:37.130Z,4.00
2023-05-09T00:39:06.326Z,4.00
2023-05-09T00:41:33.987Z,4.13
2023-05-09T00:44:01.768Z,4.03
2023-05-09T00:46:29.762Z,4.07
2023-05-09T00:49:00.155Z,4.10
2023-05-09T00:51:29.284Z,4.67
2023-05-09T00:53:57.047Z,4.30
2023-05-09T00:56:26.765Z,4.10
2023-05-09T00:58:55.522Z,3.97
2023-05-09T01:01:23.517Z,4.30
2023-05-09T01:03:51.981Z,4.10
2023-05-09T01:06:28.428Z,4.37
2023-05-09T01:09:03.740Z,4.20
2023-05-09T01:11:40.227Z,4.90
2023-05-09T01:14:16.666Z,4.53
2023-05-09T01:16:51.490Z,4.00
2023-05-09T01:19:42.048Z,4.53
2023-05-09T01:22:13.547Z,4.03
2023-05-09T01:25:02.992Z,4.40
2023-05-09T01:27:44.517Z,4.17
2023-05-09T01:30:15.198Z,4.17
2023-05-09T01:32:44.875Z,4.63
2023-05-09T01:35:15.385Z,3.60
2023-05-09T01:37:45.758Z,3.60
2023-05-09T01:40:17.695Z,3.83
2023-05-09T01:42:50.730Z,4.27
2023-05-09T01:45:21.657Z,3.77
2023-05-09T01:47:51.281Z,4.00
2023-05-09T01:50:21.518Z,4.17
2023-05-09T01:52:53.397Z,3.57
2023-05-09T01:55:25.419Z,3.80
2023-05-09T01:57:55.194Z,3.77
2023-05-09T02:00:25.953Z,4.20
2023-05-09T02:02:54.430Z,3.43
2023-05-09T02:05:23.968Z,3.73
2023-05-09T02:07:52.285Z,3.30
2023-05-09T02:10:21.762Z,3.60
2023-05-09T02:12:49.623Z,3.73
2023-05-09T02:15:17.481Z,3.67
2023-05-09T02:17:46.811Z,3.40
2023-05-09T02:20:14.626Z,3.60
2023-05-09T02:22:44.454Z,3.27
2023-05-09T02:25:15.742Z,3.53
2023-05-09T02:27:46.373Z,3.50
2023-05-09T02:30:18.624Z,4.13
2023-05-09T02:32:50.273Z,3.70
2023-05-09T02:35:19.456Z,3.83
2023-05-09T02:37:48.167Z,4.10
2023-05-09T02:40:16.008Z,3.60
2023-05-09T02:42:47.915Z,3.30
2023-05-09T02:45:15.859Z,3.30
2023-05-09T02:47:43.840Z,3.50
2023-05-09T02:50:13.312Z,3.40
2023-05-09T02:52:41.156Z,2.97
2023-05-09T02:55:10.135Z,3.20
2023-05-09T02:57:37.923Z,3.40
2023-05-09T03:00:08.893Z,3.40
2023-05-09T03:02:36.975Z,2.87
2023-05-09T03:05:05.690Z,3.10
2023-05-09T03:07:34.886Z,3.40
2023-05-09T03:10:02.667Z,3.13
2023-05-09T03:12:30.490Z,3.63
2023-05-09T03:14:58.149Z,3.43
2023-05-09T03:17:26.076Z,2.90
2023-05-09T03:19:53.875Z,2.90
2023-05-09T03:22:21.732Z,2.67
2023-05-09T03:24:50.784Z,3.00
2023-05-09T03:27:18.648Z,4.03
2023-05-09T03:29:46.351Z,3.00
2023-05-09T03:32:15.238Z,3.10
2023-05-09T03:34:43.138Z,2.77
2023-05-09T03:37:11.043Z,3.50
2023-05-09T03:39:38.843Z,3.00
2023-05-09T03:42:08.199Z,3.13
2023-05-09T03:44:36.108Z,3.30
2023-05-09T03:47:03.949Z,2.80
2023-05-09T03:49:31.895Z,2.97
2023-05-09T03:51:59.655Z,3.30
2023-05-09T03:54:27.526Z,3.20
2023-05-09T03:56:55.328Z,2.93
2023-05-09T03:59:24.481Z,2.60
2023-05-09T04:01:52.452Z,3.10
2023-05-09T04:04:20.933Z,3.50
2023-05-09T04:06:48.731Z,2.97
2023-05-09T04:09:16.675Z,3.63
2023-05-09T04:11:44.491Z,3.37
2023-05-09T04:14:12.254Z,2.80
2023-05-09T04:16:41.479Z,2.80
2023-05-09T04:19:09.316Z,2.70
2023-05-09T04:21:37.586Z,2.90
2023-05-09T04:24:08.685Z,2.77
2023-05-09T04:26:38.446Z,2.90
2023-05-09T04:29:06.475Z,2.80
2023-05-09T04:31:34.505Z,3.03
2023-05-09T04:34:04.189Z,3.10
2023-05-09T04:36:33.805Z,2.87
2023-05-09T04:39:01.570Z,3.03
2023-05-09T04:41:29.450Z,3.80
2023-05-09T04:43:57.157Z,3.37
2023-05-09T04:46:25.814Z,3.13
2023-05-09T04:48:53.679Z,2.80
2023-05-09T04:51:22.763Z,3.20
2023-05-09T04:53:50.819Z,3.00
2023-05-09T04:56:23.567Z,2.80
2023-05-09T04:58:51.452Z,2.85
2023-05-09T05:01:19.536Z,3.22
2023-05-09T05:03:47.476Z,3.08
2023-05-09T05:06:15.199Z,2.88
2023-05-09T05:08:44.956Z,2.97
2023-05-09T05:11:13.704Z,2.72
2023-05-09T05:13:41.527Z,2.90
2023-05-09T05:16:09.527Z,2.80
2023-05-09T05:18:37.472Z,2.90
2023-05-09T05:21:05.332Z,3.28
2023-05-09T05:23:33.034Z,3.13
2023-05-09T05:26:02.096Z,2.75
2023-05-09T05:28:29.802Z,2.88
2023-05-09T05:30:57.584Z,2.63
2023-05-09T05:33:25.608Z,2.45
2023-05-09T05:35:53.581Z,2.90
2023-05-09T05:38:23.719Z,3.42
2023-05-09T05:40:51.507Z,3.28
2023-05-09T05:43:20.663Z,3.33
2023-05-09T05:45:48.549Z,3.08
2023-05-09T05:48:16.412Z,2.80
2023-05-09T05:50:44.097Z,3.05
2023-05-09T05:53:12.007Z,3.00
2023-05-09T05:55:39.905Z,3.03
2023-05-09T05:58:10.408Z,2.75
2023-05-09T06:00:39.649Z,2.88
2023-05-09T06:03:07.548Z,3.35
2023-05-09T06:05:35.497Z,2.78
2023-05-09T06:08:03.246Z,2.85
2023-05-09T06:10:30.942Z,2.88
2023-05-09T06:12:58.745Z,3.22
2023-05-09T06:15:26.613Z,2.70
2023-05-09T06:17:55.933Z,3.33
2023-05-09T06:20:23.756Z,3.00
2023-05-09T06:22:51.884Z,3.00
2023-05-09T06:25:19.596Z,2.60
2023-05-09T06:27:47.287Z,2.60
2023-05-09T06:30:25.652Z,2.75
2023-05-09T06:32:57.953Z,2.72
2023-05-09T06:35:25.732Z,2.50
2023-05-09T06:37:53.554Z,3.10
2023-05-09T06:40:21.566Z,2.67
2023-05-09T06:42:49.315Z,3.10
2023-05-09T06:45:17.482Z,2.33
2023-05-09T06:47:45.676Z,2.65
2023-05-09T06:50:14.779Z,2.70
2023-05-09T06:52:42.466Z,2.70
2023-05-09T06:55:12.042Z,2.97
2023-05-09T06:57:40.345Z,2.30
2023-05-09T07:00:12.393Z,2.22
2023-05-09T07:02:41.994Z,2.50
2023-05-09T07:05:10.792Z,2.60
2023-05-09T07:07:40.705Z,2.65
2023-05-09T07:10:12.103Z,2.47
2023-05-09T07:12:40.657Z,2.20
2023-05-09T07:15:09.812Z,2.30
2023-05-09T07:17:37.595Z,2.33
2023-05-09T07:20:07.050Z,1.90
2023-05-09T07:22:36.972Z,2.13
2023-05-09T07:25:08.511Z,2.10
2023-05-09T07:27:36.253Z,2.50
2023-05-09T07:30:04.447Z,2.30
2023-05-09T07:32:32.292Z,2.10
2023-05-09T07:35:00.164Z,2.25
2023-05-09T07:37:27.915Z,2.08
2023-05-09T07:39:55.854Z,2.30
2023-05-09T07:42:24.965Z,1.95
2023-05-09T07:44:52.800Z,2.20
2023-05-09T07:47:20.746Z,2.42
2023-05-09T07:49:48.570Z,2.08
2023-05-09T07:52:17.307Z,2.05
2023-05-09T07:54:45.536Z,2.50
2023-05-09T07:57:13.257Z,3.15
2023-05-09T07:59:42.345Z,2.10
2023-05-09T08:02:12.429Z,2.22
2023-05-09T08:04:41.172Z,2.10
2023-05-09T08:07:09.525Z,1.92
2023-05-09T08:09:37.589Z,2.70
2023-05-09T08:12:06.032Z,2.33
2023-05-09T08:14:33.871Z,2.22
2023-05-09T08:17:02.958Z,2.47
2023-05-09T08:19:30.700Z,2.65
2023-05-09T08:21:58.414Z,2.17
2023-05-09T08:24:26.212Z,2.17
2023-05-09T08:26:53.970Z,2.00
2023-05-09T08:29:21.699Z,2.55
2023-05-09T08:31:49.546Z,2.25
2023-05-09T08:34:18.737Z,2.22
2023-05-09T08:36:46.982Z,2.10
2023-05-09T08:39:14.796Z,2.50
2023-05-09T08:41:44.146Z,2.00
2023-05-09T08:44:12.331Z,2.60
2023-05-09T08:46:43.155Z,2.30
2023-05-09T08:49:11.415Z,2.33
2023-05-09T08:51:41.697Z,2.40
2023-05-09T08:54:09.572Z,2.10
2023-05-09T08:56:37.739Z,2.58
2023-05-09T08:59:06.583Z,2.17
2023-05-09T09:01:35.975Z,2.22
2023-05-09T09:04:07.783Z,2.47
2023-05-09T09:06:36.622Z,2.40
2023-05-09T09:09:08.465Z,2.42
2023-05-09T09:11:37.461Z,2.30
2023-05-09T09:14:12.739Z,2.08
2023-05-09T09:16:42.468Z,2.83
2023-05-09T09:19:13.773Z,2.20
2023-05-09T09:21:43.769Z,2.15
2023-05-09T09:24:14.790Z,2.17
2023-05-09T09:26:48.334Z,2.30
2023-05-09T09:29:16.847Z,2.50
2023-05-09T09:31:46.042Z,2.13
2023-05-09T09:34:15.718Z,2.30
2023-05-09T09:36:43.523Z,2.20
2023-05-09T09:39:15.914Z,2.58
2023-05-09T09:41:44.817Z,2.35
2023-05-09T09:44:14.519Z,2.17
2023-05-09T09:46:44.907Z,2.05
2023-05-09T09:49:13.670Z,2.40
2023-05-09T09:51:42.028Z,2.70
2023-05-09T09:54:10.976Z,2.20
2023-05-09T09:56:47.251Z,2.22
2023-05-09T09:59:16.380Z,2.03
2023-05-09T10:01:58.010Z,2.85
2023-05-09T10:04:29.066Z,2.35
2023-05-09T10:06:58.757Z,2.65
2023-05-09T10:09:27.754Z,2.20
2023-05-09T10:11:57.939Z,2.55
2023-05-09T10:14:27.219Z,2.70
2023-05-09T10:16:57.300Z,2.72
2023-05-09T10:19:28.532Z,2.20
2023-05-09T10:21:58.205Z,2.20
2023-05-09T10:24:29.861Z,2.45
2023-05-09T10:27:05.355Z,2.58
2023-05-09T10:29:37.459Z,2.20
2023-05-09T10:32:12.873Z,2.30
2023-05-09T10:34:44.511Z,2.28
2023-05-09T10:37:13.462Z,2.15
2023-05-09T10:39:42.841Z,2.55
2023-05-09T10:42:14.068Z,2.33
2023-05-09T10:44:42.557Z,2.10
2023-05-09T10:47:13.147Z,2.10
2023-05-09T10:49:41.817Z,2.42
2023-05-09T10:52:09.751Z,1.88
2023-05-09T10:54:38.005Z,1.80
2023-05-09T10:57:10.075Z,2.10
2023-05-09T10:59:42.237Z,2.33
2023-05-09T11:02:14.833Z,2.05
2023-05-09T11:04:45.668Z,2.38
2023-05-09T11:07:30.182Z,2.40
2023-05-09T11:10:09.098Z,1.92
2023-05-09T11:12:57.500Z,2.30
2023-05-09T11:15:28.549Z,2.22
2023-05-09T11:18:07.754Z,1.92
2023-05-09T11:20:36.588Z,2.33
2023-05-09T11:23:06.037Z,2.25
2023-05-09T11:25:33.906Z,1.88
2023-05-09T11:28:03.147Z,2.25
2023-05-09T11:30:41.009Z,1.92
2023-05-09T11:33:23.811Z,2.55
2023-05-09T11:36:25.442Z,2.00
2023-05-09T11:39:06.762Z,1.77
2023-05-09T11:41:43.168Z,2.00
2023-05-09T11:44:15.647Z,2.20
2023-05-09T11:46:45.035Z,2.10
2023-05-09T11:49:13.130Z,2.67
2023-05-09T11:51:41.744Z,2.08
2023-05-09T11:54:11.306Z,2.47
2023-05-09T11:56:42.076Z,2.58
2023-05-09T11:59:13.149Z,2.30
2023-05-09T12:01:41.264Z,2.13
2023-05-09T12:04:10.569Z,2.30
2023-05-09T12:06:41.218Z,2.13
2023-05-09T12:09:10.820Z,2.10
2023-05-09T12:11:38.646Z,2.00
2023-05-09T12:14:06.532Z,2.00
2023-05-09T12:16:34.485Z,2.40
2023-05-09T12:19:02.359Z,2.40
2023-05-09T12:21:31.640Z,2.60
2023-05-09T12:24:00.064Z,2.42
2023-05-09T12:26:28.236Z,2.35
2023-05-09T12:28:56.490Z,2.33
2023-05-09T12:31:24.451Z,2.47
2023-05-09T12:33:52.324Z,2.03
2023-05-09T12:36:20.093Z,1.75
2023-05-09T12:38:56.015Z,1.90
2023-05-09T12:41:37.145Z,1.88
2023-05-09T12:44:10.625Z,1.80
2023-05-09T12:46:38.566Z,2.20
2023-05-09T12:49:06.498Z,1.90
2023-05-09T12:51:34.325Z,2.88
2023-05-09T12:54:05.989Z,1.73
2023-05-09T12:56:36.115Z,2.30
2023-05-09T12:59:03.928Z,2.20
2023-05-09T13:01:31.824Z,1.90
2023-05-09T13:04:04.257Z,2.15
2023-05-09T13:06:32.337Z,1.70
2023-05-09T13:09:02.035Z,1.65
2023-05-09T13:11:31.445Z,2.20
2023-05-09T13:13:59.954Z,1.92
2023-05-09T13:16:28.086Z,2.42
2023-05-09T13:18:55.883Z,2.40
2023-05-09T13:21:23.769Z,1.95
2023-05-09T13:23:54.407Z,2.47
2023-05-09T13:26:22.423Z,2.25
2023-05-09T13:28:51.601Z,1.90
2023-05-09T13:31:19.573Z,1.83
2023-05-09T13:33:49.314Z,2.28
2023-05-09T13:36:18.701Z,2.30
2023-05-09T13:38:46.761Z,2.03
2023-05-09T13:41:19.972Z,2.08
2023-05-09T13:43:48.002Z,2.22
2023-05-09T13:46:17.179Z,2.40
2023-05-09T13:48:45.216Z,2.58
2023-05-09T13:51:13.967Z,1.90
2023-05-09T13:53:41.863Z,2.00
2023-05-09T13:56:10.254Z,1.95
2023-05-09T13:58:38.174Z,2.05
2023-05-09T14:01:06.560Z,1.92
2023-05-09T14:03:35.913Z,2.00
2023-05-09T14:06:04.225Z,2.08
2023-05-09T14:08:32.235Z,2.30
2023-05-09T14:11:02.685Z,1.98
2023-05-09T14:13:31.892Z,1.88
2023-05-09T14:15:59.843Z,2.08
2023-05-09T14:18:27.664Z,1.80
2023-05-09T14:20:57.209Z,1.95
2023-05-09T14:23:25.036Z,1.88
2023-05-09T14:25:52.864Z,1.85
2023-05-09T14:28:20.620Z,1.92
2023-05-09T14:30:48.406Z,2.13
2023-05-09T14:33:16.241Z,2.55
2023-05-09T14:35:44.059Z,2.17
2023-05-09T14:38:13.728Z,1.75
2023-05-09T14:40:41.532Z,1.92
2023-05-09T14:43:09.369Z,2.30
2023-05-09T14:45:37.254Z,1.77
2023-05-09T14:48:05.246Z,1.90
2023-05-09T14:50:33.386Z,2.05
2023-05-09T14:53:02.064Z,2.10
2023-05-09T14:55:31.312Z,2.08
2023-05-09T14:57:59.192Z,1.70
2023-05-09T15:00:28.461Z,1.70
2023-05-09T15:02:56.919Z,2.40
2023-05-09T15:05:25.070Z,1.90
2023-05-09T15:07:52.865Z,2.45
2023-05-09T15:10:20.662Z,2.28
2023-05-09T15:12:51.705Z,2.03
2023-05-09T15:15:21.217Z,1.70
2023-05-09T15:17:49.096Z,2.10
2023-05-09T15:20:18.173Z,1.90
2023-05-09T15:22:47.098Z,1.90
2023-05-09T15:25:16.867Z,2.38
2023-05-09T15:27:44.717Z,2.10
2023-05-09T15:30:15.364Z,2.15
2023-05-09T15:32:43.410Z,2.00
2023-05-09T15:35:11.581Z,2.03
2023-05-09T15:37:39.413Z,2.28
2023-05-09T15:40:09.140Z,1.85
2023-05-09T15:42:37.263Z,2.00
2023-05-09T15:45:05.528Z,2.20
2023-05-09T15:47:34.680Z,1.90
2023-05-09T15:50:02.662Z,2.00
2023-05-09T15:52:30.504Z,1.88
2023-05-09T15:54:58.353Z,1.92
2023-05-09T15:57:26.335Z,2.42
2023-05-09T15:59:55.112Z,1.65
2023-05-09T16:02:23.818Z,2.13
2023-05-09T16:04:53.285Z,2.00
2023-05-09T16:07:21.071Z,1.88
2023-05-09T16:09:48.872Z,2.05
2023-05-09T16:12:16.721Z,2.00
2023-05-09T16:14:44.425Z,1.92
2023-05-09T16:17:12.482Z,1.90
2023-05-09T16:19:40.961Z,2.13
2023-05-09T16:22:10.200Z,1.90
2023-05-09T16:24:38.404Z,1.80
2023-05-09T16:27:06.171Z,1.77
2023-05-09T16:29:33.891Z,1.80
2023-05-09T16:32:01.653Z,1.90
2023-05-09T16:34:29.445Z,2.10
2023-05-09T16:36:57.197Z,1.70
2023-05-09T16:39:27.899Z,2.13
2023-05-09T16:41:55.685Z,1.70
2023-05-09T16:44:23.745Z,2.03
2023-05-09T16:46:51.473Z,1.88
2023-05-09T16:49:19.255Z,1.70
2023-05-09T16:51:47.257Z,2.15
2023-05-09T16:54:14.954Z,2.08
2023-05-09T16:56:44.059Z,1.83
2023-05-09T16:59:11.740Z,1.60
2023-05-09T17:01:39.582Z,1.85
2023-05-09T17:04:08.378Z,2.00
2023-05-09T17:06:36.176Z,2.13
2023-05-09T17:09:03.933Z,3.15
2023-05-09T17:11:32.226Z,1.88
2023-05-09T17:14:03.087Z,1.95
2023-05-09T17:16:37.969Z,1.80
2023-05-09T17:19:06.258Z,1.98
2023-05-09T17:21:34.238Z,1.90
2023-05-09T17:24:03.148Z,1.90
2023-05-09T17:26:31.244Z,2.00
2023-05-09T17:28:59.386Z,2.03
2023-05-09T17:31:28.610Z,1.90
2023-05-09T17:33:56.428Z,2.03
2023-05-09T17:36:26.723Z,2.00
2023-05-09T17:38:54.384Z,1.83
2023-05-09T17:41:24.605Z,2.20
2023-05-09T17:43:56.326Z,1.95
2023-05-09T17:46:24.348Z,2.20
2023-05-09T17:48:53.521Z,1.80
2023-05-09T17:51:21.858Z,2.05
2023-05-09T17:53:49.612Z,2.33
2023-05-09T17:56:17.501Z,2.13
2023-05-09T17:58:45.291Z,2.25
2023-05-09T18:01:13.442Z,2.30
2023-05-09T18:03:41.438Z,2.05
2023-05-09T18:06:10.743Z,2.35
2023-05-09T18:08:38.515Z,1.98
2023-05-09T18:11:06.372Z,2.63
2023-05-09T18:13:34.804Z,2.10
2023-05-09T18:16:02.901Z,2.08
2023-05-09T18:18:32.692Z,2.20
2023-05-09T18:21:00.471Z,2.15
2023-05-09T18:23:30.462Z,2.63
2023-05-09T18:25:58.423Z,2.35
2023-05-09T18:28:27.492Z,2.38
2023-05-09T18:30:56.226Z,2.00
2023-05-09T18:33:25.224Z,2.20
2023-05-09T18:35:54.112Z,2.10
2023-05-09T18:38:22.003Z,2.47
2023-05-09T18:40:52.062Z,1.77
2023-05-09T18:43:20.814Z,2.60
2023-05-09T18:45:49.101Z,2.63
2023-05-09T18:48:17.064Z,2.42
2023-05-09T18:50:44.850Z,2.53
2023-05-09T18:53:12.561Z,1.95
2023-05-09T18:55:40.575Z,2.30
2023-05-09T18:58:09.944Z,1.80
2023-05-09T19:00:39.296Z,2.50
2023-05-09T19:03:07.338Z,2.72
2023-05-09T19:05:35.057Z,2.45
2023-05-09T19:08:03.600Z,2.60
2023-05-09T19:10:31.945Z,2.42
2023-05-09T19:12:59.758Z,2.75
2023-05-09T19:15:29.928Z,2.10
2023-05-09T19:17:57.709Z,2.63
2023-05-09T19:20:26.657Z,2.10
2023-05-09T19:22:54.588Z,2.55
2023-05-09T19:25:22.697Z,2.42
2023-05-09T19:27:50.626Z,2.40
2023-05-09T19:30:18.868Z,2.90
2023-05-09T19:32:48.051Z,2.53
2023-05-09T19:35:15.942Z,2.75
2023-05-09T19:37:45.822Z,2.72
2023-05-09T19:40:13.948Z,2.10
2023-05-09T19:42:41.967Z,2.38
2023-05-09T19:45:10.775Z,2.75
2023-05-09T19:47:38.534Z,3.03
2023-05-09T19:50:08.937Z,2.60
2023-05-09T19:52:37.526Z,2.70
2023-05-09T19:55:06.934Z,2.90
2023-05-09T19:57:34.753Z,2.10
2023-05-09T20:00:03.239Z,2.38
2023-05-09T20:02:31.103Z,2.75
2023-05-09T20:04:58.886Z,2.28
2023-05-09T20:07:27.958Z,2.65
2023-05-09T20:09:55.743Z,2.72
2023-05-09T20:12:23.555Z,2.60
2023-05-09T20:14:51.358Z,2.78
2023-05-09T20:17:19.455Z,2.60
2023-05-09T20:19:47.182Z,2.53
2023-05-09T20:22:15.998Z,2.70
2023-05-09T20:24:45.191Z,2.22
2023-05-09T20:27:13.118Z,2.60
2023-05-09T20:29:40.927Z,2.20
2023-05-09T20:32:08.819Z,2.47
2023-05-09T20:34:36.525Z,2.40
2023-05-09T20:37:04.253Z,2.45
2023-05-09T20:39:31.952Z,2.20
2023-05-09T20:42:02.494Z,2.50
2023-05-09T20:44:30.403Z,2.28
2023-05-09T20:46:58.280Z,2.10
2023-05-09T20:49:27.116Z,2.80
2023-05-09T20:51:55.337Z,2.40
2023-05-09T20:54:23.992Z,2.22
2023-05-09T20:56:51.824Z,2.10
2023-05-09T20:59:20.920Z,2.35
2023-05-09T21:01:48.808Z,2.40
2023-05-09T21:04:16.635Z,3.28
2023-05-09T21:06:44.622Z,2.70
2023-05-09T21:09:12.469Z,2.70
2023-05-09T21:11:40.507Z,2.17
2023-05-09T21:14:09.587Z,2.40
2023-05-09T21:16:38.729Z,2.30
2023-05-09T21:19:08.690Z,2.13
2023-05-09T21:21:36.467Z,2.90
2023-05-09T21:24:13.472Z,2.60
2023-05-09T21:26:41.225Z,2.47
2023-05-09T21:29:09.106Z,2.55
2023-05-09T21:31:38.273Z,2.13
2023-05-09T21:34:09.887Z,2.38
2023-05-09T21:36:38.513Z,2.40
2023-05-09T21:39:09.212Z,2.55
2023-05-09T21:41:38.324Z,2.42
2023-05-09T21:44:07.381Z,2.50
2023-05-09T21:46:36.316Z,2.85
2023-05-09T21:49:05.626Z,2.58
2023-05-09T21:51:35.348Z,2.70
2023-05-09T21:54:03.089Z,2.70
2023-05-09T21:56:30.876Z,2.70
2023-05-09T21:58:58.563Z,2.70
2023-05-09T22:01:26.392Z,2.80
2023-05-09T22:03:54.236Z,2.42
2023-05-09T22:06:23.458Z,2.53
2023-05-09T22:08:51.652Z,3.00
2023-05-09T22:11:19.399Z,3.33
2023-05-09T22:13:47.277Z,3.00
2023-05-09T22:16:15.130Z,3.25
2023-05-09T22:18:43.215Z,2.78
2023-05-09T22:21:10.974Z,2.67
2023-05-09T22:23:40.126Z,3.25
2023-05-09T22:26:10.518Z,3.00
2023-05-09T22:28:38.526Z,2.75
2023-05-09T22:31:06.875Z,3.13
2023-05-09T22:33:34.669Z,3.20
2023-05-09T22:36:02.499Z,2.92
2023-05-09T22:38:30.240Z,3.22
2023-05-09T22:40:59.426Z,2.90
2023-05-09T22:43:31.148Z,3.35
2023-05-09T22:46:06.731Z,3.15
2023-05-09T22:48:34.676Z,2.95
2023-05-09T22:51:02.666Z,3.38
2023-05-09T22:53:30.346Z,3.08
2023-05-09T22:55:59.555Z,2.97
2023-05-09T22:58:27.540Z,3.17
2023-05-09T23:00:55.434Z,3.35
2023-05-09T23:03:23.392Z,3.63
2023-05-09T23:05:52.098Z,3.28
2023-05-09T23:08:20.010Z,4.38
2023-05-09T23:10:47.819Z,4.03
2023-05-09T23:13:17.082Z,3.03
2023-05-09T23:15:44.970Z,3.75
2023-05-09T23:18:12.997Z,3.67
2023-05-09T23:20:41.809Z,3.55
2023-05-09T23:23:16.943Z,3.72
2023-05-09T23:25:44.942Z,3.78
2023-05-09T23:28:13.758Z,3.80
2023-05-09T23:30:43.006Z,3.63
2023-05-09T23:33:11.514Z,4.00
2023-05-09T23:35:39.501Z,4.07
2023-05-09T23:38:07.344Z,4.30
2023-05-09T23:40:35.224Z,3.60
2023-05-09T23:43:03.041Z,4.18
2023-05-09T23:45:30.919Z,3.95
2023-05-09T23:48:00.303Z,4.00
2023-05-09T23:50:28.377Z,3.97
2023-05-09T23:52:56.166Z,3.92
2023-05-09T23:55:23.985Z,4.28
2023-05-09T23:57:51.986Z,3.90
